createdAt,value
2023-09-09T00:01:11.262Z,76.16
2023-09-09T00:03:43.762Z,76.28
2023-09-09T00:06:15.698Z,76.06
2023-09-09T00:08:47.563Z,76.09
2023-09-09T00:11:18.919Z,76.06
2023-09-09T00:13:50.249Z,76.24
2023-09-09T00:16:21.890Z,76.21
2023-09-09T00:18:54.228Z,76.33
2023-09-09T00:21:25.678Z,76.28
2023-09-09T00:23:57.066Z,76.21
2023-09-09T00:26:29.827Z,76.19
2023-09-09T00:29:01.410Z,76.18
2023-09-09T00:31:32.962Z,76.40
2023-09-09T00:34:04.321Z,76.22
2023-09-09T00:36:35.646Z,76.44
2023-09-09T00:39:07.946Z,76.37
2023-09-09T00:41:39.400Z,76.44
2023-09-09T00:44:10.830Z,76.48
2023-09-09T00:46:42.403Z,76.44
2023-09-09T00:49:13.881Z,76.50
2023-09-09T00:51:46.187Z,76.70
2023-09-09T00:54:17.821Z,76.79
2023-09-09T00:56:51.503Z,76.90
2023-09-09T00:59:22.964Z,76.94
2023-09-09T01:01:54.556Z,76.98
2023-09-09T01:04:26.606Z,76.98
2023-09-09T01:06:59.401Z,77.12
2023-09-09T01:09:31.379Z,77.11
2023-09-09T01:12:04.265Z,77.21
2023-09-09T01:14:35.747Z,77.35
2023-09-09T01:17:07.576Z,77.40
2023-09-09T01:19:39.506Z,77.32
2023-09-09T01:22:13.005Z,77.42
2023-09-09T01:24:46.242Z,77.25
2023-09-09T01:27:17.596Z,77.41
2023-09-09T01:29:48.952Z,77.46
2023-09-09T01:32:20.370Z,77.56
2023-09-09T01:34:51.819Z,77.61
2023-09-09T01:37:23.681Z,77.47
2023-09-09T01:39:55.073Z,77.45
2023-09-09T01:42:26.536Z,77.61
2023-09-09T01:44:57.968Z,77.69
2023-09-09T01:47:29.312Z,77.69
2023-09-09T01:50:00.670Z,77.74
2023-09-09T01:52:32.141Z,77.68
2023-09-09T01:55:03.760Z,77.76
2023-09-09T01:57:35.159Z,77.75
2023-09-09T02:00:11.355Z,77.76
2023-09-09T02:02:42.666Z,77.92
2023-09-09T02:05:14.381Z,77.90
2023-09-09T02:07:45.674Z,77.86
2023-09-09T02:10:17.151Z,77.95
2023-09-09T02:12:48.484Z,77.96
2023-09-09T02:15:20.255Z,77.78
2023-09-09T02:17:51.624Z,77.67
2023-09-09T02:20:22.941Z,77.79
2023-09-09T02:22:54.198Z,77.77
2023-09-09T02:25:25.568Z,77.77
2023-09-09T02:27:56.923Z,77.68
2023-09-09T02:30:28.397Z,77.56
2023-09-09T02:33:00.417Z,77.57
2023-09-09T02:35:32.012Z,77.56
2023-09-09T02:38:03.450Z,77.60
2023-09-09T02:40:34.719Z,77.58
2023-09-09T02:43:06.503Z,77.70
2023-09-09T02:45:37.780Z,77.73
2023-09-09T02:48:09.461Z,77.55
2023-09-09T02:50:40.958Z,77.47
2023-09-09T02:53:12.284Z,77.53
2023-09-09T02:55:43.696Z,77.50
2023-09-09T02:58:15.444Z,77.45
2023-09-09T03:00:46.982Z,77.52
2023-09-09T03:03:18.614Z,77.58
2023-09-09T03:05:50.468Z,77.49
2023-09-09T03:08:21.773Z,77.67
2023-09-09T03:10:54.124Z,77.52
2023-09-09T03:13:25.412Z,77.63
2023-09-09T03:15:56.779Z,77.55
2023-09-09T03:18:28.304Z,77.49
2023-09-09T03:20:59.746Z,77.54
2023-09-09T03:23:31.212Z,77.37
2023-09-09T03:26:02.581Z,77.53
2023-09-09T03:28:33.949Z,77.51
2023-09-09T03:31:05.321Z,77.43
2023-09-09T03:33:36.846Z,77.49
2023-09-09T03:36:09.434Z,77.33
2023-09-09T03:38:41.416Z,77.61
2023-09-09T03:41:12.728Z,77.50
2023-09-09T03:43:44.393Z,77.68
2023-09-09T03:46:16.322Z,77.57
2023-09-09T03:48:47.712Z,77.47
2023-09-09T03:51:20.718Z,77.61
2023-09-09T03:53:52.060Z,77.60
2023-09-09T03:56:23.482Z,77.64
2023-09-09T03:58:54.797Z,77.65
2023-09-09T04:01:26.268Z,77.73
2023-09-09T04:03:57.910Z,77.58
2023-09-09T04:06:29.923Z,77.60
2023-09-09T04:09:01.466Z,77.49
2023-09-09T04:11:33.233Z,77.49
2023-09-09T04:14:04.565Z,77.46
2023-09-09T04:16:36.097Z,77.63
2023-09-09T04:19:07.717Z,77.66
2023-09-09T04:21:39.092Z,77.65
2023-09-09T04:24:10.882Z,77.55
2023-09-09T04:26:42.340Z,77.61
2023-09-09T04:29:13.795Z,77.70
2023-09-09T04:31:47.895Z,77.54
2023-09-09T04:34:19.288Z,77.62
2023-09-09T04:36:50.650Z,77.63
2023-09-09T04:39:22.089Z,77.65
2023-09-09T04:41:53.533Z,77.72
2023-09-09T04:44:25.206Z,77.56
2023-09-09T04:46:56.485Z,77.53
2023-09-09T04:49:28.501Z,77.50
2023-09-09T04:51:59.889Z,77.66
2023-09-09T04:54:31.284Z,77.57
2023-09-09T04:57:03.788Z,77.55
2023-09-09T04:59:35.610Z,77.55
2023-09-09T05:02:07.387Z,77.56
2023-09-09T05:04:38.755Z,77.56
2023-09-09T05:07:11.166Z,77.71
2023-09-09T05:09:42.569Z,77.65
2023-09-09T05:12:13.949Z,77.81
2023-09-09T05:14:45.443Z,77.88
2023-09-09T05:17:16.719Z,77.86
2023-09-09T05:19:47.999Z,77.76
2023-09-09T05:22:19.395Z,77.81
2023-09-09T05:24:50.806Z,77.74
2023-09-09T05:27:22.131Z,77.87
2023-09-09T05:29:53.425Z,77.83
2023-09-09T05:32:24.799Z,77.89
2023-09-09T05:34:56.184Z,77.78
2023-09-09T05:37:28.567Z,77.67
2023-09-09T05:40:04.190Z,77.82
2023-09-09T05:42:36.075Z,77.91
2023-09-09T05:45:10.351Z,77.76
2023-09-09T05:47:42.404Z,78.11
2023-09-09T05:50:14.258Z,78.06
2023-09-09T05:52:45.660Z,78.06
2023-09-09T05:55:17.352Z,78.02
2023-09-09T05:57:48.745Z,77.92
2023-09-09T06:00:21.228Z,77.87
2023-09-09T06:02:52.696Z,78.13
2023-09-09T06:05:24.871Z,78.14
2023-09-09T06:07:58.330Z,78.11
2023-09-09T06:10:29.765Z,78.08
2023-09-09T06:13:01.245Z,78.01
2023-09-09T06:15:32.738Z,78.11
2023-09-09T06:18:04.283Z,78.24
2023-09-09T06:20:35.603Z,78.17
2023-09-09T06:23:06.895Z,78.24
2023-09-09T06:25:38.388Z,78.30
2023-09-09T06:28:09.890Z,78.42
2023-09-09T06:30:45.350Z,78.37
2023-09-09T06:33:16.672Z,78.58
2023-09-09T06:35:55.585Z,78.49
2023-09-09T06:38:27.086Z,78.50
2023-09-09T06:40:58.455Z,78.41
2023-09-09T06:43:29.847Z,78.56
2023-09-09T06:46:01.925Z,78.57
2023-09-09T06:48:33.430Z,78.31
2023-09-09T06:51:05.091Z,78.44
2023-09-09T06:53:36.873Z,78.28
2023-09-09T06:56:09.321Z,78.16
2023-09-09T06:58:40.673Z,77.91
2023-09-09T07:01:13.060Z,77.94
2023-09-09T07:03:44.765Z,77.69
2023-09-09T07:06:16.232Z,77.77
2023-09-09T07:08:48.750Z,78.01
2023-09-09T07:11:18.785Z,77.76
2023-09-09T07:13:50.167Z,77.51
2023-09-09T07:16:23.046Z,77.58
2023-09-09T07:18:54.394Z,77.48
2023-09-09T07:21:25.838Z,77.40
2023-09-09T07:23:57.154Z,77.58
2023-09-09T07:26:28.931Z,77.37
2023-09-09T07:29:00.350Z,77.24
2023-09-09T07:31:31.951Z,77.16
2023-09-09T07:34:03.380Z,76.81
2023-09-09T07:36:34.804Z,76.85
2023-09-09T07:39:07.491Z,76.93
2023-09-09T07:41:38.863Z,76.87
2023-09-09T07:44:10.745Z,76.88
2023-09-09T07:46:43.065Z,76.71
2023-09-09T07:49:14.929Z,76.55
2023-09-09T07:51:47.503Z,76.59
2023-09-09T07:54:18.829Z,76.41
2023-09-09T07:56:50.218Z,76.22
2023-09-09T07:59:21.538Z,76.18
2023-09-09T08:01:52.967Z,76.21
2023-09-09T08:04:24.509Z,76.31
2023-09-09T08:06:56.059Z,76.13
2023-09-09T08:09:27.645Z,76.09
2023-09-09T08:11:58.935Z,76.00
2023-09-09T08:14:30.434Z,75.94
2023-09-09T08:17:01.864Z,75.82
2023-09-09T08:19:33.393Z,75.83
2023-09-09T08:22:04.878Z,75.77
2023-09-09T08:24:36.220Z,75.56
2023-09-09T08:27:08.378Z,75.48
2023-09-09T08:29:39.728Z,75.43
2023-09-09T08:32:11.436Z,75.50
2023-09-09T08:34:43.173Z,75.55
2023-09-09T08:37:16.421Z,75.43
2023-09-09T08:39:48.278Z,75.47
2023-09-09T08:42:32.624Z,75.27
2023-09-09T08:45:14.654Z,75.46
2023-09-09T08:47:49.899Z,75.61
2023-09-09T08:50:22.788Z,75.59
2023-09-09T08:52:56.816Z,75.28
2023-09-09T08:55:28.961Z,75.39
2023-09-09T08:58:00.756Z,75.35
2023-09-09T09:00:35.843Z,75.58
2023-09-09T09:03:09.057Z,75.55
2023-09-09T09:05:43.175Z,75.44
2023-09-09T09:08:14.762Z,75.27
2023-09-09T09:10:48.447Z,75.19
2023-09-09T09:13:19.935Z,75.06
2023-09-09T09:15:51.312Z,74.67
2023-09-09T09:18:23.007Z,74.93
2023-09-09T09:20:54.634Z,74.31
2023-09-09T09:23:25.986Z,73.14
2023-09-09T09:25:57.262Z,73.01
2023-09-09T09:28:31.166Z,72.86
2023-09-09T09:31:02.438Z,72.86
2023-09-09T09:33:35.085Z,72.53
2023-09-09T09:36:07.090Z,72.77
2023-09-09T09:38:38.691Z,72.22
2023-09-09T09:41:12.336Z,72.08
2023-09-09T09:43:43.881Z,72.37
2023-09-09T09:46:19.268Z,72.51
2023-09-09T09:48:51.097Z,72.94
2023-09-09T09:51:22.468Z,72.28
2023-09-09T09:53:56.896Z,72.18
2023-09-09T09:56:28.331Z,72.46
2023-09-09T09:58:59.753Z,72.34
2023-09-09T10:01:31.836Z,72.45
2023-09-09T10:04:07.775Z,72.71
2023-09-09T10:06:42.321Z,72.76
2023-09-09T10:09:19.273Z,72.33
2023-09-09T10:12:04.448Z,72.75
2023-09-09T10:14:38.469Z,72.95
2023-09-09T10:17:10.710Z,72.63
2023-09-09T10:19:43.527Z,72.49
2023-09-09T10:22:15.486Z,72.47
2023-09-09T10:24:48.682Z,72.27
2023-09-09T10:27:21.560Z,72.66
2023-09-09T10:29:53.428Z,72.48
2023-09-09T10:32:27.540Z,72.49
2023-09-09T10:35:00.771Z,72.34
2023-09-09T10:37:34.740Z,72.45
2023-09-09T10:40:08.906Z,71.53
2023-09-09T10:42:42.940Z,70.93
2023-09-09T10:45:29.426Z,70.63
2023-09-09T10:48:02.876Z,70.06
2023-09-09T10:50:46.315Z,69.73
2023-09-09T10:53:21.023Z,69.56
2023-09-09T10:55:56.331Z,69.18
2023-09-09T10:58:36.152Z,69.12
2023-09-09T11:01:09.276Z,68.97
2023-09-09T11:03:50.189Z,68.96
2023-09-09T11:06:26.598Z,68.58
2023-09-09T11:09:00.179Z,68.23
2023-09-09T11:11:36.275Z,68.66
2023-09-09T11:14:09.389Z,68.81
2023-09-09T11:16:42.267Z,68.55
2023-09-09T11:19:15.066Z,68.33
2023-09-09T11:21:48.079Z,68.05
2023-09-09T11:24:19.947Z,68.12
2023-09-09T11:26:52.660Z,67.77
2023-09-09T11:29:36.125Z,67.23
2023-09-09T11:32:11.625Z,67.38
2023-09-09T11:34:43.206Z,67.10
2023-09-09T11:37:14.630Z,68.18
2023-09-09T11:39:46.404Z,67.68
2023-09-09T11:42:18.747Z,67.16
2023-09-09T11:44:50.275Z,66.64
2023-09-09T11:47:22.289Z,67.00
2023-09-09T11:49:53.621Z,66.59
2023-09-09T11:52:25.917Z,66.29
2023-09-09T11:54:56.265Z,65.78
2023-09-09T11:57:27.768Z,65.34
2023-09-09T12:00:01.985Z,64.48
2023-09-09T12:02:33.853Z,63.72
2023-09-09T12:05:06.596Z,63.38
2023-09-09T12:07:40.236Z,63.66
2023-09-09T12:10:15.949Z,63.13
2023-09-09T12:12:49.052Z,63.41
2023-09-09T12:15:21.434Z,63.19
2023-09-09T12:17:53.367Z,62.98
2023-09-09T12:20:25.268Z,62.26
2023-09-09T12:22:57.130Z,62.91
2023-09-09T12:25:36.591Z,63.27
2023-09-09T12:28:19.729Z,63.22
2023-09-09T12:30:53.914Z,63.33
2023-09-09T12:33:26.109Z,63.24
2023-09-09T12:35:56.321Z,63.47
2023-09-09T12:38:29.458Z,61.81
2023-09-09T12:41:08.599Z,61.93
2023-09-09T12:43:40.737Z,61.81
2023-09-09T12:46:19.297Z,62.16
2023-09-09T12:48:56.727Z,62.64
2023-09-09T12:51:30.821Z,62.21
2023-09-09T12:54:02.750Z,62.18
2023-09-09T12:56:34.523Z,62.44
2023-09-09T12:59:07.348Z,62.93
2023-09-09T13:01:39.910Z,62.76
2023-09-09T13:04:11.807Z,63.16
2023-09-09T13:06:43.590Z,62.18
2023-09-09T13:09:15.286Z,62.47
2023-09-09T13:11:47.004Z,61.65
2023-09-09T13:14:25.316Z,61.57
2023-09-09T13:16:58.664Z,61.36
2023-09-09T13:19:32.384Z,61.20
2023-09-09T13:22:07.493Z,61.54
2023-09-09T13:24:39.428Z,61.08
2023-09-09T13:27:11.266Z,61.48
2023-09-09T13:29:43.270Z,61.60
2023-09-09T13:32:15.050Z,61.80
2023-09-09T13:34:47.013Z,61.58
2023-09-09T13:37:18.983Z,61.63
2023-09-09T13:39:50.649Z,62.45
2023-09-09T13:42:23.402Z,62.30
2023-09-09T13:47:28.623Z,62.18
2023-09-09T13:50:05.712Z,60.98
2023-09-09T13:52:37.536Z,60.95
2023-09-09T13:55:10.257Z,61.52
2023-09-09T13:57:41.517Z,61.63
2023-09-09T14:00:14.705Z,62.03
2023-09-09T14:02:46.100Z,61.33
2023-09-09T14:05:17.709Z,61.43
2023-09-09T14:07:48.999Z,61.30
2023-09-09T14:10:20.712Z,61.70
2023-09-09T14:12:52.021Z,62.01
2023-09-09T14:15:23.530Z,61.97
2023-09-09T14:17:55.025Z,62.20
2023-09-09T14:20:27.394Z,62.22
2023-09-09T14:22:57.218Z,62.45
2023-09-09T14:25:28.762Z,62.38
2023-09-09T14:27:59.998Z,62.35
2023-09-09T14:30:31.387Z,62.74
2023-09-09T14:33:03.097Z,62.76
2023-09-09T14:35:34.577Z,62.93
2023-09-09T14:38:06.268Z,62.89
2023-09-09T14:40:37.584Z,63.64
2023-09-09T14:43:08.874Z,64.21
2023-09-09T14:45:40.349Z,64.53
2023-09-09T14:48:15.428Z,63.78
2023-09-09T14:50:47.080Z,62.58
2023-09-09T14:53:18.669Z,62.74
2023-09-09T14:55:50.277Z,63.03
2023-09-09T14:58:21.827Z,63.27
2023-09-09T15:00:53.201Z,62.72
2023-09-09T15:03:24.764Z,63.02
2023-09-09T15:05:57.159Z,63.07
2023-09-09T15:08:28.541Z,63.36
2023-09-09T15:11:00.052Z,63.06
2023-09-09T15:13:31.603Z,63.29
2023-09-09T15:16:07.793Z,63.65
2023-09-09T15:18:39.436Z,63.44
2023-09-09T15:21:11.148Z,63.56
2023-09-09T15:23:42.485Z,63.58
2023-09-09T15:26:13.889Z,63.56
2023-09-09T15:28:45.265Z,63.47
2023-09-09T15:31:18.338Z,63.27
2023-09-09T15:33:49.915Z,63.47
2023-09-09T15:36:21.525Z,63.12
2023-09-09T15:38:52.808Z,63.43
2023-09-09T15:41:25.102Z,63.57
2023-09-09T15:43:56.454Z,63.62
2023-09-09T15:46:28.055Z,63.73
2023-09-09T15:48:59.490Z,63.97
2023-09-09T15:51:30.993Z,63.56
2023-09-09T15:54:03.061Z,63.30
2023-09-09T15:56:34.454Z,63.05
2023-09-09T15:59:06.134Z,63.43
2023-09-09T16:01:37.518Z,63.37
2023-09-09T16:04:09.283Z,63.33
2023-09-09T16:06:40.870Z,63.72
2023-09-09T16:09:12.200Z,63.49
2023-09-09T16:11:43.577Z,63.50
2023-09-09T16:14:15.759Z,64.08
2023-09-09T16:16:47.250Z,64.38
2023-09-09T16:19:18.737Z,63.83
2023-09-09T16:21:50.034Z,63.67
2023-09-09T16:24:22.773Z,63.99
2023-09-09T16:26:54.371Z,64.55
2023-09-09T16:29:25.649Z,64.66
2023-09-09T16:31:57.275Z,64.22
2023-09-09T16:34:30.808Z,64.68
2023-09-09T16:37:02.127Z,65.03
2023-09-09T16:39:34.033Z,65.05
2023-09-09T16:42:07.132Z,65.36
2023-09-09T16:44:38.442Z,65.43
2023-09-09T16:47:10.003Z,65.82
2023-09-09T16:49:41.478Z,65.87
2023-09-09T16:52:13.049Z,66.13
2023-09-09T16:54:44.411Z,66.26
2023-09-09T16:57:15.755Z,66.36
2023-09-09T16:59:47.077Z,66.60
2023-09-09T17:02:18.502Z,66.83
2023-09-09T17:04:50.020Z,67.03
2023-09-09T17:07:21.535Z,67.57
2023-09-09T17:09:53.184Z,67.31
2023-09-09T17:12:24.764Z,67.80
2023-09-09T17:14:56.165Z,67.30
2023-09-09T17:17:27.571Z,67.70
2023-09-09T17:19:59.170Z,67.60
2023-09-09T17:22:30.636Z,67.87
2023-09-09T17:25:01.995Z,67.97
2023-09-09T17:27:33.329Z,68.20
2023-09-09T17:30:05.235Z,68.39
2023-09-09T17:32:36.538Z,68.50
2023-09-09T17:35:09.633Z,69.04
2023-09-09T17:37:41.190Z,69.23
2023-09-09T17:40:13.586Z,69.13
2023-09-09T17:42:43.410Z,69.31
2023-09-09T17:45:15.192Z,69.04
2023-09-09T17:47:46.606Z,69.19
2023-09-09T17:50:17.959Z,69.62
2023-09-09T17:52:49.494Z,69.51
2023-09-09T17:55:21.338Z,69.67
2023-09-09T17:57:52.740Z,69.81
2023-09-09T18:00:24.387Z,69.92
2023-09-09T18:02:56.221Z,70.07
2023-09-09T18:05:27.780Z,69.98
2023-09-09T18:07:59.206Z,70.36
2023-09-09T18:10:30.612Z,70.95
2023-09-09T18:13:01.969Z,71.28
2023-09-09T18:15:33.333Z,71.29
2023-09-09T18:18:04.911Z,71.58
2023-09-09T18:20:36.341Z,71.84
2023-09-09T18:23:07.776Z,71.47
2023-09-09T18:25:39.134Z,71.46
2023-09-09T18:28:10.490Z,71.52
2023-09-09T18:30:46.156Z,71.51
2023-09-09T18:33:17.442Z,71.87
2023-09-09T18:35:49.032Z,72.03
2023-09-09T18:38:20.353Z,72.07
2023-09-09T18:40:54.144Z,72.29
2023-09-09T18:43:25.609Z,72.23
2023-09-09T18:45:59.130Z,71.97
2023-09-09T18:48:30.515Z,72.20
2023-09-09T18:51:02.416Z,72.44
2023-09-09T18:53:34.018Z,72.17
2023-09-09T18:56:05.753Z,72.37
2023-09-09T18:58:37.631Z,72.44
2023-09-09T19:01:09.230Z,72.20
2023-09-09T19:03:40.939Z,72.39
2023-09-09T19:06:12.629Z,72.10
2023-09-09T19:08:44.052Z,72.14
2023-09-09T19:11:17.151Z,71.85
2023-09-09T19:13:48.634Z,72.01
2023-09-09T19:16:20.042Z,72.09
2023-09-09T19:18:52.559Z,72.27
2023-09-09T19:21:25.683Z,72.25
2023-09-09T19:23:57.426Z,72.29
2023-09-09T19:26:29.075Z,72.17
2023-09-09T19:29:00.513Z,72.18
2023-09-09T19:31:32.244Z,72.16
2023-09-09T19:34:03.653Z,72.36
2023-09-09T19:36:35.031Z,72.53
2023-09-09T19:39:06.583Z,72.54
2023-09-09T19:41:38.917Z,72.61
2023-09-09T19:44:10.363Z,71.99
2023-09-09T19:46:41.838Z,71.89
2023-09-09T19:49:13.209Z,71.79
2023-09-09T19:51:44.739Z,71.56
2023-09-09T19:54:16.204Z,71.51
2023-09-09T19:56:49.685Z,70.90
2023-09-09T19:59:22.796Z,71.43
2023-09-09T20:01:54.345Z,71.25
2023-09-09T20:04:26.327Z,71.15
2023-09-09T20:06:57.765Z,71.48
2023-09-09T20:09:29.092Z,71.74
2023-09-09T20:12:01.314Z,71.50
2023-09-09T20:14:32.752Z,71.49
2023-09-09T20:17:04.418Z,71.86
2023-09-09T20:19:36.698Z,72.10
2023-09-09T20:22:08.240Z,72.16
2023-09-09T20:24:39.545Z,72.28
2023-09-09T20:27:10.922Z,72.23
2023-09-09T20:29:42.242Z,72.29
2023-09-09T20:32:13.611Z,72.42
2023-09-09T20:34:44.960Z,72.10
2023-09-09T20:37:16.328Z,72.17
2023-09-09T20:39:47.915Z,72.36
2023-09-09T20:42:19.270Z,72.25
2023-09-09T20:44:50.585Z,72.02
2023-09-09T20:47:22.003Z,72.27
2023-09-09T20:49:53.465Z,71.92
2023-09-09T20:52:25.094Z,71.84
2023-09-09T20:54:56.755Z,71.95
2023-09-09T20:57:28.080Z,71.91
2023-09-09T20:59:59.405Z,72.18
2023-09-09T21:02:30.728Z,72.01
2023-09-09T21:05:02.451Z,71.97
2023-09-09T21:07:33.938Z,72.02
2023-09-09T21:10:06.576Z,72.07
2023-09-09T21:12:37.872Z,72.14
2023-09-09T21:15:11.121Z,72.22
2023-09-09T21:17:42.640Z,72.30
2023-09-09T21:20:15.500Z,72.51
2023-09-09T21:22:47.593Z,72.62
2023-09-09T21:25:29.883Z,72.76
2023-09-09T21:28:04.262Z,72.61
2023-09-09T21:30:37.954Z,72.73
2023-09-09T21:33:09.633Z,72.78
2023-09-09T21:35:41.094Z,72.78
2023-09-09T21:38:12.416Z,72.89
2023-09-09T21:40:43.707Z,72.90
2023-09-09T21:43:17.136Z,73.09
2023-09-09T21:45:48.555Z,73.31
2023-09-09T21:48:19.939Z,73.47
2023-09-09T21:50:51.377Z,73.46
2023-09-09T21:53:24.853Z,73.44
2023-09-09T21:55:56.283Z,73.57
2023-09-09T21:58:27.827Z,73.73
2023-09-09T22:00:59.279Z,73.87
2023-09-09T22:03:30.795Z,74.01
2023-09-09T22:06:02.222Z,74.00
2023-09-09T22:08:33.810Z,74.07
2023-09-09T22:11:07.434Z,73.89
2023-09-09T22:13:40.635Z,74.12
2023-09-09T22:16:12.637Z,74.00
2023-09-09T22:18:43.910Z,74.15
2023-09-09T22:21:15.192Z,74.32
2023-09-09T22:23:46.558Z,74.46
2023-09-09T22:26:28.830Z,74.49
2023-09-09T22:29:00.856Z,74.71
2023-09-09T22:31:32.516Z,74.81
2023-09-09T22:34:03.969Z,74.77
2023-09-09T22:36:35.404Z,74.93
2023-09-09T22:39:06.795Z,74.91
2023-09-09T22:41:38.102Z,74.95
2023-09-09T22:44:10.294Z,75.12
2023-09-09T22:46:41.661Z,75.16
2023-09-09T22:49:14.171Z,75.36
2023-09-09T22:51:45.340Z,75.41
2023-09-09T22:54:16.804Z,75.55
2023-09-09T22:56:48.042Z,75.64
2023-09-09T22:59:19.323Z,75.62
2023-09-09T23:01:50.822Z,75.72
2023-09-09T23:04:22.279Z,75.87
2023-09-09T23:06:53.587Z,75.89
2023-09-09T23:09:24.833Z,75.94
2023-09-09T23:11:56.235Z,75.93
2023-09-09T23:14:27.660Z,76.00
2023-09-09T23:16:59.117Z,75.90
2023-09-09T23:19:30.490Z,76.00
2023-09-09T23:22:01.833Z,76.00
2023-09-09T23:24:33.129Z,76.14
2023-09-09T23:27:04.726Z,76.31
2023-09-09T23:29:36.130Z,76.30
2023-09-09T23:32:08.652Z,76.25
2023-09-09T23:34:41.409Z,76.04
2023-09-09T23:37:13.317Z,76.20
2023-09-09T23:39:44.558Z,75.96
2023-09-09T23:42:15.836Z,76.00
2023-09-09T23:44:47.288Z,76.14
2023-09-09T23:47:18.547Z,76.16
2023-09-09T23:49:50.360Z,76.26
2023-09-09T23:52:21.618Z,76.31
2023-09-09T23:54:53.041Z,76.30
2023-09-09T23:57:24.425Z,76.26
2023-09-09T23:59:56.078Z,76.26
